sensor_id;sensor_type;location;lat;lon;timestamp;pressure;altitude;pressure_sealevel;temperature
28803;BMP280;15949;55.656;37.422;2023-02-26T00:03:29;97008.19;;;0.25
28803;BMP280;15949;55.656;37.422;2023-02-26T00:08:35;96997.41;;;0.19
28803;BMP280;15949;55.656;37.422;2023-02-26T00:13:42;96988.22;;;0.18
28803;BMP280;15949;55.656;37.422;2023-02-26T00:18:48;96960.41;;;0.17
28803;BMP280;15949;55.656;37.422;2023-02-26T00:23:55;96943.22;;;0.17
28803;BMP280;15949;55.656;37.422;2023-02-26T00:29:02;96935.84;;;0.16
28803;BMP280;15949;55.656;37.422;2023-02-26T00:34:11;96905.13;;;0.16
28803;BMP280;15949;55.656;37.422;2023-02-26T00:44:41;96895.84;;;0.11
28803;BMP280;15949;55.656;37.422;2023-02-26T00:50:15;96918.03;;;0.07
28803;BMP280;15949;55.656;37.422;2023-02-26T00:55:21;96916.31;;;0.11
28803;BMP280;15949;55.656;37.422;2023-02-26T01:00:27;96914.06;;;0.09
28803;BMP280;15949;55.656;37.422;2023-02-26T01:05:33;96898.50;;;0.02
28803;BMP280;15949;55.656;37.422;2023-02-26T01:10:39;96889.66;;;-0.00
28803;BMP280;15949;55.656;37.422;2023-02-26T01:15:49;96883.03;;;-0.01
28803;BMP280;15949;55.656;37.422;2023-02-26T01:21:02;96876.50;;;0.01
28803;BMP280;15949;55.656;37.422;2023-02-26T01:26:22;96858.28;;;0.03
28803;BMP280;15949;55.656;37.422;2023-02-26T01:31:45;96860.84;;;0.03
28803;BMP280;15949;55.656;37.422;2023-02-26T01:42:22;96845.38;;;-0.01
28803;BMP280;15949;55.656;37.422;2023-02-26T01:47:36;96835.75;;;-0.04
28803;BMP280;15949;55.656;37.422;2023-02-26T01:57:55;96814.78;;;0.03
28803;BMP280;15949;55.656;37.422;2023-02-26T02:03:02;96809.75;;;-0.06
28803;BMP280;15949;55.656;37.422;2023-02-26T02:08:08;96796.88;;;-0.09
28803;BMP280;15949;55.656;37.422;2023-02-26T02:13:19;96801.13;;;-0.01
28803;BMP280;15949;55.656;37.422;2023-02-26T02:18:37;96810.41;;;0.03
28803;BMP280;15949;55.656;37.422;2023-02-26T02:24:03;96791.00;;;0.02
28803;BMP280;15949;55.656;37.422;2023-02-26T02:29:53;96797.59;;;-0.09
28803;BMP280;15949;55.656;37.422;2023-02-26T02:35:30;96783.53;;;-0.15
28803;BMP280;15949;55.656;37.422;2023-02-26T02:40:41;96785.34;;;-0.15
28803;BMP280;15949;55.656;37.422;2023-02-26T03:01:18;96766.50;;;-0.11
28803;BMP280;15949;55.656;37.422;2023-02-26T03:06:26;96772.13;;;-0.05
28803;BMP280;15949;55.656;37.422;2023-02-26T03:11:32;96774.47;;;-0.00
28803;BMP280;15949;55.656;37.422;2023-02-26T03:38:39;96777.56;;;0.05
28803;BMP280;15949;55.656;37.422;2023-02-26T03:43:51;96781.81;;;0.01
28803;BMP280;15949;55.656;37.422;2023-02-26T03:49:03;96789.81;;;-0.00
28803;BMP280;15949;55.656;37.422;2023-02-26T03:54:27;96806.03;;;0.04
28803;BMP280;15949;55.656;37.422;2023-02-26T03:59:35;96798.38;;;0.04
28803;BMP280;15949;55.656;37.422;2023-02-26T04:04:46;96805.41;;;0.07
28803;BMP280;15949;55.656;37.422;2023-02-26T04:09:53;96817.53;;;0.10
28803;BMP280;15949;55.656;37.422;2023-02-26T04:14:58;96827.47;;;0.12
28803;BMP280;15949;55.656;37.422;2023-02-26T04:20:05;96834.09;;;0.13
28803;BMP280;15949;55.656;37.422;2023-02-26T04:25:17;96846.47;;;0.11
28803;BMP280;15949;55.656;37.422;2023-02-26T04:30:23;96846.91;;;0.13
28803;BMP280;15949;55.656;37.422;2023-02-26T04:35:29;96862.66;;;0.15
28803;BMP280;15949;55.656;37.422;2023-02-26T04:40:34;96862.88;;;0.09
28803;BMP280;15949;55.656;37.422;2023-02-26T04:45:40;96872.81;;;0.11
28803;BMP280;15949;55.656;37.422;2023-02-26T04:50:46;96883.78;;;0.12
28803;BMP280;15949;55.656;37.422;2023-02-26T04:55:52;96887.84;;;0.13
28803;BMP280;15949;55.656;37.422;2023-02-26T05:00:57;96893.28;;;0.11
28803;BMP280;15949;55.656;37.422;2023-02-26T05:06:03;96910.03;;;0.08
28803;BMP280;15949;55.656;37.422;2023-02-26T05:11:10;96928.72;;;0.09
28803;BMP280;15949;55.656;37.422;2023-02-26T05:16:16;96933.38;;;0.07
28803;BMP280;15949;55.656;37.422;2023-02-26T05:21:22;96954.06;;;0.14
28803;BMP280;15949;55.656;37.422;2023-02-26T05:26:27;96963.72;;;0.17
28803;BMP280;15949;55.656;37.422;2023-02-26T05:31:34;96971.91;;;0.23
28803;BMP280;15949;55.656;37.422;2023-02-26T05:36:39;96987.06;;;0.28
28803;BMP280;15949;55.656;37.422;2023-02-26T05:41:45;97001.38;;;0.29
28803;BMP280;15949;55.656;37.422;2023-02-26T05:46:51;97015.03;;;0.33
28803;BMP280;15949;55.656;37.422;2023-02-26T05:51:57;97016.09;;;0.32
28803;BMP280;15949;55.656;37.422;2023-02-26T05:57:02;97020.41;;;0.40
28803;BMP280;15949;55.656;37.422;2023-02-26T06:02:08;97024.59;;;0.44
28803;BMP280;15949;55.656;37.422;2023-02-26T06:07:14;97033.22;;;0.52
28803;BMP280;15949;55.656;37.422;2023-02-26T06:12:19;97034.72;;;0.53
28803;BMP280;15949;55.656;37.422;2023-02-26T06:17:25;97044.31;;;0.56
28803;BMP280;15949;55.656;37.422;2023-02-26T06:22:32;97037.09;;;0.70
28803;BMP280;15949;55.656;37.422;2023-02-26T06:27:38;97046.28;;;0.83
28803;BMP280;15949;55.656;37.422;2023-02-26T06:32:43;97054.72;;;0.84
28803;BMP280;15949;55.656;37.422;2023-02-26T06:37:49;97057.94;;;0.81
28803;BMP280;15949;55.656;37.422;2023-02-26T06:42:55;97085.50;;;0.84
28803;BMP280;15949;55.656;37.422;2023-02-26T06:48:01;97079.06;;;0.78
28803;BMP280;15949;55.656;37.422;2023-02-26T06:53:07;97086.13;;;0.81
28803;BMP280;15949;55.656;37.422;2023-02-26T06:58:13;97099.38;;;0.83
28803;BMP280;15949;55.656;37.422;2023-02-26T07:03:19;97108.44;;;0.80
28803;BMP280;15949;55.656;37.422;2023-02-26T07:08:25;97115.00;;;0.90
28803;BMP280;15949;55.656;37.422;2023-02-26T07:13:31;97123.00;;;1.00
28803;BMP280;15949;55.656;37.422;2023-02-26T07:18:37;97113.19;;;1.15
28803;BMP280;15949;55.656;37.422;2023-02-26T07:23:42;97123.56;;;1.18
28803;BMP280;15949;55.656;37.422;2023-02-26T07:28:48;97130.38;;;1.26
28803;BMP280;15949;55.656;37.422;2023-02-26T07:33:54;97123.66;;;1.46
28803;BMP280;15949;55.656;37.422;2023-02-26T07:39:00;97126.00;;;1.63
28803;BMP280;15949;55.656;37.422;2023-02-26T07:44:05;97126.66;;;1.48
28803;BMP280;15949;55.656;37.422;2023-02-26T07:49:11;97138.63;;;1.32
28803;BMP280;15949;55.656;37.422;2023-02-26T07:54:17;97150.59;;;1.28
28803;BMP280;15949;55.656;37.422;2023-02-26T07:59:23;97156.81;;;1.39
28803;BMP280;15949;55.656;37.422;2023-02-26T08:04:28;97167.91;;;1.55
28803;BMP280;15949;55.656;37.422;2023-02-26T08:09:35;97162.38;;;1.65
28803;BMP280;15949;55.656;37.422;2023-02-26T08:14:41;97167.59;;;1.69
28803;BMP280;15949;55.656;37.422;2023-02-26T08:19:47;97171.41;;;1.99
28803;BMP280;15949;55.656;37.422;2023-02-26T08:24:52;97184.69;;;2.57
28803;BMP280;15949;55.656;37.422;2023-02-26T08:29:58;97207.72;;;2.65
28803;BMP280;15949;55.656;37.422;2023-02-26T08:35:04;97203.19;;;2.62
28803;BMP280;15949;55.656;37.422;2023-02-26T08:40:10;97217.69;;;2.82
28803;BMP280;15949;55.656;37.422;2023-02-26T08:45:16;97234.84;;;2.78
28803;BMP280;15949;55.656;37.422;2023-02-26T08:50:23;97241.84;;;2.26
28803;BMP280;15949;55.656;37.422;2023-02-26T08:55:29;97239.34;;;1.89
28803;BMP280;15949;55.656;37.422;2023-02-26T09:00:34;97257.31;;;1.53
28803;BMP280;15949;55.656;37.422;2023-02-26T09:05:40;97274.69;;;1.23
28803;BMP280;15949;55.656;37.422;2023-02-26T09:10:46;97275.38;;;1.12
28803;BMP280;15949;55.656;37.422;2023-02-26T09:15:52;97283.19;;;1.15
28803;BMP280;15949;55.656;37.422;2023-02-26T09:20:57;97286.34;;;1.33
28803;BMP280;15949;55.656;37.422;2023-02-26T09:26:03;97297.72;;;1.44
28803;BMP280;15949;55.656;37.422;2023-02-26T09:31:09;97295.59;;;1.58
28803;BMP280;15949;55.656;37.422;2023-02-26T09:36:14;97302.50;;;1.45
28803;BMP280;15949;55.656;37.422;2023-02-26T09:41:27;97301.66;;;1.41
28803;BMP280;15949;55.656;37.422;2023-02-26T09:52:21;97319.28;;;1.10
28803;BMP280;15949;55.656;37.422;2023-02-26T10:03:15;97340.53;;;1.64
28803;BMP280;15949;55.656;37.422;2023-02-26T10:08:24;97347.81;;;1.86
28803;BMP280;15949;55.656;37.422;2023-02-26T10:13:49;97343.16;;;2.00
28803;BMP280;15949;55.656;37.422;2023-02-26T10:19:02;97350.69;;;1.85
28803;BMP280;15949;55.656;37.422;2023-02-26T10:24:14;97362.31;;;1.58
28803;BMP280;15949;55.656;37.422;2023-02-26T10:29:36;97367.03;;;1.56
28803;BMP280;15949;55.656;37.422;2023-02-26T10:34:57;97373.16;;;1.76
28803;BMP280;15949;55.656;37.422;2023-02-26T10:50:32;97379.50;;;1.90
28803;BMP280;15949;55.656;37.422;2023-02-26T10:55:45;97386.94;;;1.71
28803;BMP280;15949;55.656;37.422;2023-02-26T11:00:53;97374.84;;;1.60
28803;BMP280;15949;55.656;37.422;2023-02-26T11:06:01;97385.91;;;1.84
28803;BMP280;15949;55.656;37.422;2023-02-26T11:11:08;97369.69;;;2.29
28803;BMP280;15949;55.656;37.422;2023-02-26T11:16:14;97391.97;;;2.37
28803;BMP280;15949;55.656;37.422;2023-02-26T11:21:27;97387.25;;;2.51
28803;BMP280;15949;55.656;37.422;2023-02-26T11:26:35;97396.44;;;2.40
28803;BMP280;15949;55.656;37.422;2023-02-26T11:31:42;97396.25;;;2.33
28803;BMP280;15949;55.656;37.422;2023-02-26T11:36:47;97403.00;;;2.37
28803;BMP280;15949;55.656;37.422;2023-02-26T11:41:57;97411.16;;;2.51
28803;BMP280;15949;55.656;37.422;2023-02-26T11:47:12;97396.56;;;2.43
28803;BMP280;15949;55.656;37.422;2023-02-26T11:52:27;97400.00;;;2.35
28803;BMP280;15949;55.656;37.422;2023-02-26T11:57:33;97404.06;;;2.48
28803;BMP280;15949;55.656;37.422;2023-02-26T12:02:39;97401.59;;;2.40
28803;BMP280;15949;55.656;37.422;2023-02-26T12:07:44;97429.78;;;1.91
28803;BMP280;15949;55.656;37.422;2023-02-26T12:18:46;97456.47;;;1.25
28803;BMP280;15949;55.656;37.422;2023-02-26T12:34:31;97465.78;;;0.79
28803;BMP280;15949;55.656;37.422;2023-02-26T13:01:38;97501.75;;;0.62
28803;BMP280;15949;55.656;37.422;2023-02-26T13:07:00;97504.06;;;0.38
28803;BMP280;15949;55.656;37.422;2023-02-26T13:17:41;97526.84;;;0.14
28803;BMP280;15949;55.656;37.422;2023-02-26T13:23:02;97532.13;;;-0.00
28803;BMP280;15949;55.656;37.422;2023-02-26T13:33:45;97561.75;;;-0.25
28803;BMP280;15949;55.656;37.422;2023-02-26T14:00:46;97594.25;;;-0.82
28803;BMP280;15949;55.656;37.422;2023-02-26T14:06:06;97623.22;;;-0.95
28803;BMP280;15949;55.656;37.422;2023-02-26T14:27:37;97661.75;;;-1.14
28803;BMP280;15949;55.656;37.422;2023-02-26T14:32:48;97659.88;;;-1.22
28803;BMP280;15949;55.656;37.422;2023-02-26T14:38:03;97676.25;;;-1.23
28803;BMP280;15949;55.656;37.422;2023-02-26T14:43:19;97686.56;;;-1.28
28803;BMP280;15949;55.656;37.422;2023-02-26T14:48:26;97687.16;;;-1.31
28803;BMP280;15949;55.656;37.422;2023-02-26T15:10:07;97742.00;;;-1.64
28803;BMP280;15949;55.656;37.422;2023-02-26T15:15:35;97737.75;;;-1.69
28803;BMP280;15949;55.656;37.422;2023-02-26T15:20:55;97756.19;;;-1.72
28803;BMP280;15949;55.656;37.422;2023-02-26T15:26:05;97759.38;;;-1.66
28803;BMP280;15949;55.656;37.422;2023-02-26T15:31:11;97779.53;;;-1.79
28803;BMP280;15949;55.656;37.422;2023-02-26T15:36:18;97776.97;;;-1.92
28803;BMP280;15949;55.656;37.422;2023-02-26T15:41:28;97793.59;;;-1.95
28803;BMP280;15949;55.656;37.422;2023-02-26T15:46:37;97799.25;;;-1.98
28803;BMP280;15949;55.656;37.422;2023-02-26T15:51:43;97803.31;;;-1.97
28803;BMP280;15949;55.656;37.422;2023-02-26T15:56:50;97811.47;;;-1.95
28803;BMP280;15949;55.656;37.422;2023-02-26T16:01:56;97828.75;;;-1.92
28803;BMP280;15949;55.656;37.422;2023-02-26T16:07:01;97822.34;;;-1.89
28803;BMP280;15949;55.656;37.422;2023-02-26T16:12:13;97838.19;;;-2.06
28803;BMP280;15949;55.656;37.422;2023-02-26T16:17:27;97858.66;;;-2.11
28803;BMP280;15949;55.656;37.422;2023-02-26T16:22:39;97862.34;;;-2.17
28803;BMP280;15949;55.656;37.422;2023-02-26T16:28:09;97866.19;;;-2.19
28803;BMP280;15949;55.656;37.422;2023-02-26T16:33:17;97881.88;;;-2.26
28803;BMP280;15949;55.656;37.422;2023-02-26T16:38:46;97882.13;;;-2.28
28803;BMP280;15949;55.656;37.422;2023-02-26T16:43:55;97919.78;;;-2.38
28803;BMP280;15949;55.656;37.422;2023-02-26T16:54:22;97931.03;;;-2.39
28803;BMP280;15949;55.656;37.422;2023-02-26T16:59:34;97945.22;;;-2.52
28803;BMP280;15949;55.656;37.422;2023-02-26T17:04:40;97950.25;;;-2.47
28803;BMP280;15949;55.656;37.422;2023-02-26T17:09:48;97961.97;;;-2.46
28803;BMP280;15949;55.656;37.422;2023-02-26T17:14:56;97970.25;;;-2.54
28803;BMP280;15949;55.656;37.422;2023-02-26T17:20:02;97957.00;;;-2.56
28803;BMP280;15949;55.656;37.422;2023-02-26T17:25:16;97974.38;;;-2.58
28803;BMP280;15949;55.656;37.422;2023-02-26T17:30:22;97990.94;;;-2.60
28803;BMP280;15949;55.656;37.422;2023-02-26T17:35:28;97987.56;;;-2.75
28803;BMP280;15949;55.656;37.422;2023-02-26T17:40:35;97997.56;;;-2.83
28803;BMP280;15949;55.656;37.422;2023-02-26T17:45:42;97999.84;;;-2.82
28803;BMP280;15949;55.656;37.422;2023-02-26T17:50:52;98006.47;;;-2.81
28803;BMP280;15949;55.656;37.422;2023-02-26T17:55:59;98022.84;;;-2.87
28803;BMP280;15949;55.656;37.422;2023-02-26T18:01:04;98035.63;;;-2.92
28803;BMP280;15949;55.656;37.422;2023-02-26T18:06:13;98026.41;;;-2.88
28803;BMP280;15949;55.656;37.422;2023-02-26T18:11:19;98039.25;;;-2.98
28803;BMP280;15949;55.656;37.422;2023-02-26T18:16:34;98053.41;;;-2.87
28803;BMP280;15949;55.656;37.422;2023-02-26T18:21:41;98050.09;;;-2.87
28803;BMP280;15949;55.656;37.422;2023-02-26T18:26:46;98071.31;;;-2.92
28803;BMP280;15949;55.656;37.422;2023-02-26T18:31:52;98076.34;;;-2.87
28803;BMP280;15949;55.656;37.422;2023-02-26T18:36:58;98087.69;;;-2.98
28803;BMP280;15949;55.656;37.422;2023-02-26T18:42:03;98084.41;;;-3.08
28803;BMP280;15949;55.656;37.422;2023-02-26T18:47:09;98099.72;;;-3.14
28803;BMP280;15949;55.656;37.422;2023-02-26T18:52:15;98102.09;;;-3.22
28803;BMP280;15949;55.656;37.422;2023-02-26T18:57:21;98119.72;;;-3.31
28803;BMP280;15949;55.656;37.422;2023-02-26T19:02:27;98118.25;;;-3.42
28803;BMP280;15949;55.656;37.422;2023-02-26T19:07:33;98135.88;;;-3.50
28803;BMP280;15949;55.656;37.422;2023-02-26T19:12:38;98133.34;;;-3.55
28803;BMP280;15949;55.656;37.422;2023-02-26T19:17:44;98142.03;;;-3.56
28803;BMP280;15949;55.656;37.422;2023-02-26T19:22:50;98155.47;;;-3.51
28803;BMP280;15949;55.656;37.422;2023-02-26T19:27:56;98184.78;;;-3.53
28803;BMP280;15949;55.656;37.422;2023-02-26T19:33:02;98176.38;;;-3.54
28803;BMP280;15949;55.656;37.422;2023-02-26T19:38:08;98183.72;;;-3.47
28803;BMP280;15949;55.656;37.422;2023-02-26T19:43:14;98185.97;;;-3.41
28803;BMP280;15949;55.656;37.422;2023-02-26T19:48:20;98197.47;;;-3.43
28803;BMP280;15949;55.656;37.422;2023-02-26T19:53:26;98198.47;;;-3.39
28803;BMP280;15949;55.656;37.422;2023-02-26T19:58:32;98197.91;;;-3.36
28803;BMP280;15949;55.656;37.422;2023-02-26T20:03:39;98218.25;;;-3.26
28803;BMP280;15949;55.656;37.422;2023-02-26T20:08:44;98213.19;;;-3.31
28803;BMP280;15949;55.656;37.422;2023-02-26T20:13:50;98230.47;;;-3.28
28803;BMP280;15949;55.656;37.422;2023-02-26T20:18:55;98239.16;;;-3.29
28803;BMP280;15949;55.656;37.422;2023-02-26T20:24:01;98260.56;;;-3.35
28803;BMP280;15949;55.656;37.422;2023-02-26T20:29:07;98265.94;;;-3.42
28803;BMP280;15949;55.656;37.422;2023-02-26T20:34:13;98263.69;;;-3.53
28803;BMP280;15949;55.656;37.422;2023-02-26T20:39:18;98273.88;;;-3.53
28803;BMP280;15949;55.656;37.422;2023-02-26T20:44:25;98270.31;;;-3.52
28803;BMP280;15949;55.656;37.422;2023-02-26T20:49:31;98276.44;;;-3.59
28803;BMP280;15949;55.656;37.422;2023-02-26T20:54:36;98300.84;;;-3.52
28803;BMP280;15949;55.656;37.422;2023-02-26T20:59:42;98321.22;;;-3.47
28803;BMP280;15949;55.656;37.422;2023-02-26T21:04:47;98316.63;;;-3.50
28803;BMP280;15949;55.656;37.422;2023-02-26T21:09:53;98320.94;;;-3.46
28803;BMP280;15949;55.656;37.422;2023-02-26T21:14:59;98327.81;;;-3.41
28803;BMP280;15949;55.656;37.422;2023-02-26T21:20:06;98352.00;;;-3.39
28803;BMP280;15949;55.656;37.422;2023-02-26T21:25:13;98353.78;;;-3.49
28803;BMP280;15949;55.656;37.422;2023-02-26T21:30:18;98367.06;;;-3.47
28803;BMP280;15949;55.656;37.422;2023-02-26T21:35:24;98371.13;;;-3.56
28803;BMP280;15949;55.656;37.422;2023-02-26T21:40:30;98378.78;;;-3.62
28803;BMP280;15949;55.656;37.422;2023-02-26T21:45:37;98382.81;;;-3.55
28803;BMP280;15949;55.656;37.422;2023-02-26T21:50:43;98408.03;;;-3.59
28803;BMP280;15949;55.656;37.422;2023-02-26T21:55:48;98406.78;;;-3.56
28803;BMP280;15949;55.656;37.422;2023-02-26T22:00:56;98432.47;;;-3.63
28803;BMP280;15949;55.656;37.422;2023-02-26T22:06:03;98435.78;;;-3.63
28803;BMP280;15949;55.656;37.422;2023-02-26T22:11:09;98435.78;;;-3.78
28803;BMP280;15949;55.656;37.422;2023-02-26T22:16:16;98452.59;;;-3.67
28803;BMP280;15949;55.656;37.422;2023-02-26T22:21:21;98478.56;;;-3.75
28803;BMP280;15949;55.656;37.422;2023-02-26T22:26:30;98473.69;;;-3.76
28803;BMP280;15949;55.656;37.422;2023-02-26T22:31:35;98481.59;;;-3.83
28803;BMP280;15949;55.656;37.422;2023-02-26T22:36:41;98495.34;;;-3.79
28803;BMP280;15949;55.656;37.422;2023-02-26T22:41:47;98511.88;;;-3.81
28803;BMP280;15949;55.656;37.422;2023-02-26T22:46:52;98517.97;;;-3.87
28803;BMP280;15949;55.656;37.422;2023-02-26T22:51:58;98533.22;;;-3.82
28803;BMP280;15949;55.656;37.422;2023-02-26T22:57:04;98547.22;;;-3.85
28803;BMP280;15949;55.656;37.422;2023-02-26T23:02:10;98563.53;;;-3.76
28803;BMP280;15949;55.656;37.422;2023-02-26T23:07:16;98571.94;;;-3.75
28803;BMP280;15949;55.656;37.422;2023-02-26T23:12:22;98570.16;;;-3.75
28803;BMP280;15949;55.656;37.422;2023-02-26T23:17:27;98584.88;;;-3.87
28803;BMP280;15949;55.656;37.422;2023-02-26T23:22:33;98582.63;;;-3.83
28803;BMP280;15949;55.656;37.422;2023-02-26T23:27:38;98589.97;;;-3.87
28803;BMP280;15949;55.656;37.422;2023-02-26T23:32:44;98596.06;;;-3.93
28803;BMP280;15949;55.656;37.422;2023-02-26T23:37:50;98609.25;;;-3.96
28803;BMP280;15949;55.656;37.422;2023-02-26T23:42:56;98612.06;;;-3.97
28803;BMP280;15949;55.656;37.422;2023-02-26T23:48:01;98627.59;;;-3.94
28803;BMP280;15949;55.656;37.422;2023-02-26T23:53:07;98632.66;;;-3.99
28803;BMP280;15949;55.656;37.422;2023-02-26T23:58:12;98639.06;;;-3.96
